sensor_id;sensor_type;location;lat;lon;timestamp;P1;durP1;ratioP1;P2;durP2;ratioP2
22843;SDS011;11588;51.178;4.852;2023-06-22T00:02:23;1.85;;;1.00;;
22843;SDS011;11588;51.178;4.852;2023-06-22T00:04:49;1.30;;;1.00;;
22843;SDS011;11588;51.178;4.852;2023-06-22T00:07:16;1.45;;;1.13;;
22843;SDS011;11588;51.178;4.852;2023-06-22T00:09:42;1.67;;;1.15;;
22843;SDS011;11588;51.178;4.852;2023-06-22T00:12:08;1.92;;;1.20;;
22843;SDS011;11588;51.178;4.852;2023-06-22T00:14:34;1.95;;;1.02;;
22843;SDS011;11588;51.178;4.852;2023-06-22T00:17:01;1.20;;;1.00;;
22843;SDS011;11588;51.178;4.852;2023-06-22T00:19:27;2.60;;;1.15;;
22843;SDS011;11588;51.178;4.852;2023-06-22T00:21:53;1.38;;;0.93;;
22843;SDS011;11588;51.178;4.852;2023-06-22T00:24:20;2.00;;;1.23;;
22843;SDS011;11588;51.178;4.852;2023-06-22T00:26:48;1.17;;;0.68;;
22843;SDS011;11588;51.178;4.852;2023-06-22T00:29:15;1.98;;;1.15;;
22843;SDS011;11588;51.178;4.852;2023-06-22T00:31:41;2.03;;;1.00;;
22843;SDS011;11588;51.178;4.852;2023-06-22T00:34:08;2.40;;;1.17;;
22843;SDS011;11588;51.178;4.852;2023-06-22T00:36:35;2.58;;;0.98;;
22843;SDS011;11588;51.178;4.852;2023-06-22T00:39:02;2.33;;;1.10;;
22843;SDS011;11588;51.178;4.852;2023-06-22T00:41:28;2.38;;;1.15;;
22843;SDS011;11588;51.178;4.852;2023-06-22T00:43:55;1.75;;;1.15;;
22843;SDS011;11588;51.178;4.852;2023-06-22T00:46:21;2.00;;;1.00;;
22843;SDS011;11588;51.178;4.852;2023-06-22T00:48:49;4.55;;;1.35;;
22843;SDS011;11588;51.178;4.852;2023-06-22T00:51:16;1.45;;;1.15;;
22843;SDS011;11588;51.178;4.852;2023-06-22T00:53:43;3.13;;;1.35;;
22843;SDS011;11588;51.178;4.852;2023-06-22T00:56:09;2.65;;;1.50;;
22843;SDS011;11588;51.178;4.852;2023-06-22T00:58:38;3.35;;;1.90;;
22843;SDS011;11588;51.178;4.852;2023-06-22T01:01:07;1.63;;;1.02;;
22843;SDS011;11588;51.178;4.852;2023-06-22T01:03:34;3.13;;;1.23;;
22843;SDS011;11588;51.178;4.852;2023-06-22T01:06:02;2.33;;;1.30;;
22843;SDS011;11588;51.178;4.852;2023-06-22T01:08:41;1.95;;;1.15;;
22843;SDS011;11588;51.178;4.852;2023-06-22T01:14:00;2.42;;;1.42;;
22843;SDS011;11588;51.178;4.852;2023-06-22T01:16:30;3.28;;;1.75;;
22843;SDS011;11588;51.178;4.852;2023-06-22T01:18:57;2.05;;;1.10;;
22843;SDS011;11588;51.178;4.852;2023-06-22T01:21:24;3.22;;;2.00;;
22843;SDS011;11588;51.178;4.852;2023-06-22T01:28:46;2.13;;;1.20;;
22843;SDS011;11588;51.178;4.852;2023-06-22T01:31:15;4.05;;;1.58;;
22843;SDS011;11588;51.178;4.852;2023-06-22T01:33:43;2.95;;;1.35;;
22843;SDS011;11588;51.178;4.852;2023-06-22T01:36:11;2.50;;;1.25;;
22843;SDS011;11588;51.178;4.852;2023-06-22T01:38:39;2.72;;;1.52;;
22843;SDS011;11588;51.178;4.852;2023-06-22T01:41:05;1.67;;;1.50;;
22843;SDS011;11588;51.178;4.852;2023-06-22T01:43:32;2.08;;;1.10;;
22843;SDS011;11588;51.178;4.852;2023-06-22T01:46:00;2.03;;;1.48;;
22843;SDS011;11588;51.178;4.852;2023-06-22T01:48:27;1.65;;;1.10;;
22843;SDS011;11588;51.178;4.852;2023-06-22T01:50:55;2.97;;;1.25;;
22843;SDS011;11588;51.178;4.852;2023-06-22T01:53:22;2.33;;;1.35;;
22843;SDS011;11588;51.178;4.852;2023-06-22T01:55:49;1.65;;;1.13;;
22843;SDS011;11588;51.178;4.852;2023-06-22T01:58:15;8.00;;;1.48;;
22843;SDS011;11588;51.178;4.852;2023-06-22T02:00:44;2.83;;;1.20;;
22843;SDS011;11588;51.178;4.852;2023-06-22T02:03:19;2.78;;;1.08;;
22843;SDS011;11588;51.178;4.852;2023-06-22T02:05:49;2.10;;;1.02;;
22843;SDS011;11588;51.178;4.852;2023-06-22T02:08:19;2.45;;;1.50;;
22843;SDS011;11588;51.178;4.852;2023-06-22T02:10:49;3.50;;;1.45;;
22843;SDS011;11588;51.178;4.852;2023-06-22T02:13:17;2.53;;;1.33;;
22843;SDS011;11588;51.178;4.852;2023-06-22T02:15:43;1.75;;;0.68;;
22843;SDS011;11588;51.178;4.852;2023-06-22T02:18:11;2.38;;;1.30;;
22843;SDS011;11588;51.178;4.852;2023-06-22T02:20:38;2.05;;;1.33;;
22843;SDS011;11588;51.178;4.852;2023-06-22T02:23:05;2.28;;;1.30;;
22843;SDS011;11588;51.178;4.852;2023-06-22T02:25:33;2.80;;;1.30;;
22843;SDS011;11588;51.178;4.852;2023-06-22T02:28:00;4.18;;;1.85;;
22843;SDS011;11588;51.178;4.852;2023-06-22T02:30:27;2.92;;;1.77;;
22843;SDS011;11588;51.178;4.852;2023-06-22T02:32:54;2.00;;;1.15;;
22843;SDS011;11588;51.178;4.852;2023-06-22T02:35:27;2.58;;;1.73;;
22843;SDS011;11588;51.178;4.852;2023-06-22T02:37:58;3.28;;;1.65;;
22843;SDS011;11588;51.178;4.852;2023-06-22T02:40:27;4.22;;;1.95;;
22843;SDS011;11588;51.178;4.852;2023-06-22T02:42:54;3.00;;;1.45;;
22843;SDS011;11588;51.178;4.852;2023-06-22T02:45:21;2.50;;;1.60;;
22843;SDS011;11588;51.178;4.852;2023-06-22T02:47:48;3.88;;;1.73;;
22843;SDS011;11588;51.178;4.852;2023-06-22T02:50:15;4.43;;;2.28;;
22843;SDS011;11588;51.178;4.852;2023-06-22T02:52:41;3.28;;;1.67;;
22843;SDS011;11588;51.178;4.852;2023-06-22T02:55:08;4.38;;;1.90;;
22843;SDS011;11588;51.178;4.852;2023-06-22T02:57:35;3.22;;;1.63;;
22843;SDS011;11588;51.178;4.852;2023-06-22T03:00:02;4.43;;;2.38;;
22843;SDS011;11588;51.178;4.852;2023-06-22T03:02:29;3.80;;;1.98;;
22843;SDS011;11588;51.178;4.852;2023-06-22T03:04:56;2.97;;;1.98;;
22843;SDS011;11588;51.178;4.852;2023-06-22T03:07:24;3.63;;;2.00;;
22843;SDS011;11588;51.178;4.852;2023-06-22T03:09:50;4.47;;;2.60;;
22843;SDS011;11588;51.178;4.852;2023-06-22T03:12:17;2.95;;;1.75;;
22843;SDS011;11588;51.178;4.852;2023-06-22T03:14:44;3.47;;;2.45;;
22843;SDS011;11588;51.178;4.852;2023-06-22T03:17:10;3.90;;;2.35;;
22843;SDS011;11588;51.178;4.852;2023-06-22T03:19:37;4.63;;;2.47;;
22843;SDS011;11588;51.178;4.852;2023-06-22T03:22:04;4.55;;;2.60;;
22843;SDS011;11588;51.178;4.852;2023-06-22T03:24:34;3.85;;;2.60;;
22843;SDS011;11588;51.178;4.852;2023-06-22T03:27:01;4.45;;;2.40;;
22843;SDS011;11588;51.178;4.852;2023-06-22T03:29:32;7.25;;;4.30;;
22843;SDS011;11588;51.178;4.852;2023-06-22T03:31:59;6.75;;;3.38;;
22843;SDS011;11588;51.178;4.852;2023-06-22T03:34:26;5.85;;;3.28;;
22843;SDS011;11588;51.178;4.852;2023-06-22T03:36:52;6.90;;;3.20;;
22843;SDS011;11588;51.178;4.852;2023-06-22T03:39:19;6.35;;;3.70;;
22843;SDS011;11588;51.178;4.852;2023-06-22T03:41:46;4.93;;;2.97;;
22843;SDS011;11588;51.178;4.852;2023-06-22T03:44:13;6.18;;;3.42;;
22843;SDS011;11588;51.178;4.852;2023-06-22T03:46:40;6.45;;;3.42;;
22843;SDS011;11588;51.178;4.852;2023-06-22T03:49:06;6.43;;;4.03;;
22843;SDS011;11588;51.178;4.852;2023-06-22T03:51:33;8.18;;;4.50;;
22843;SDS011;11588;51.178;4.852;2023-06-22T03:54:00;6.97;;;3.85;;
22843;SDS011;11588;51.178;4.852;2023-06-22T03:56:27;7.75;;;3.85;;
22843;SDS011;11588;51.178;4.852;2023-06-22T03:58:53;8.05;;;4.55;;
22843;SDS011;11588;51.178;4.852;2023-06-22T04:01:20;7.30;;;4.55;;
22843;SDS011;11588;51.178;4.852;2023-06-22T04:03:50;7.05;;;4.07;;
22843;SDS011;11588;51.178;4.852;2023-06-22T04:06:17;7.25;;;4.07;;
22843;SDS011;11588;51.178;4.852;2023-06-22T04:08:45;6.97;;;4.22;;
22843;SDS011;11588;51.178;4.852;2023-06-22T04:11:14;8.23;;;4.67;;
22843;SDS011;11588;51.178;4.852;2023-06-22T04:13:41;6.30;;;4.15;;
22843;SDS011;11588;51.178;4.852;2023-06-22T04:16:07;8.95;;;4.72;;
22843;SDS011;11588;51.178;4.852;2023-06-22T04:18:34;7.35;;;3.95;;
22843;SDS011;11588;51.178;4.852;2023-06-22T04:21:01;6.20;;;3.72;;
22843;SDS011;11588;51.178;4.852;2023-06-22T04:23:28;5.90;;;3.90;;
22843;SDS011;11588;51.178;4.852;2023-06-22T04:25:55;6.30;;;4.72;;
22843;SDS011;11588;51.178;4.852;2023-06-22T04:28:23;8.98;;;5.22;;
22843;SDS011;11588;51.178;4.852;2023-06-22T04:30:49;6.32;;;4.10;;
22843;SDS011;11588;51.178;4.852;2023-06-22T04:33:17;9.35;;;5.00;;
22843;SDS011;11588;51.178;4.852;2023-06-22T04:35:45;10.20;;;4.45;;
22843;SDS011;11588;51.178;4.852;2023-06-22T04:38:12;8.25;;;4.80;;
22843;SDS011;11588;51.178;4.852;2023-06-22T04:40:39;11.75;;;4.40;;
22843;SDS011;11588;51.178;4.852;2023-06-22T04:43:06;6.53;;;4.07;;
22843;SDS011;11588;51.178;4.852;2023-06-22T04:45:33;8.40;;;5.28;;
22843;SDS011;11588;51.178;4.852;2023-06-22T04:47:59;8.45;;;4.70;;
22843;SDS011;11588;51.178;4.852;2023-06-22T04:50:26;8.45;;;4.97;;
22843;SDS011;11588;51.178;4.852;2023-06-22T04:52:53;10.45;;;5.75;;
22843;SDS011;11588;51.178;4.852;2023-06-22T04:55:20;8.35;;;5.13;;
22843;SDS011;11588;51.178;4.852;2023-06-22T04:57:47;10.18;;;4.95;;
22843;SDS011;11588;51.178;4.852;2023-06-22T05:00:16;7.45;;;4.55;;
22843;SDS011;11588;51.178;4.852;2023-06-22T05:02:44;7.88;;;5.85;;
22843;SDS011;11588;51.178;4.852;2023-06-22T05:05:12;10.18;;;5.82;;
22843;SDS011;11588;51.178;4.852;2023-06-22T05:07:42;9.52;;;5.63;;
22843;SDS011;11588;51.178;4.852;2023-06-22T05:10:10;7.45;;;5.43;;
22843;SDS011;11588;51.178;4.852;2023-06-22T05:12:38;8.10;;;5.70;;
22843;SDS011;11588;51.178;4.852;2023-06-22T05:15:06;8.82;;;5.85;;
22843;SDS011;11588;51.178;4.852;2023-06-22T05:17:33;8.07;;;5.63;;
22843;SDS011;11588;51.178;4.852;2023-06-22T05:20:00;8.75;;;5.72;;
22843;SDS011;11588;51.178;4.852;2023-06-22T05:22:27;9.18;;;5.40;;
22843;SDS011;11588;51.178;4.852;2023-06-22T05:24:54;9.68;;;6.00;;
22843;SDS011;11588;51.178;4.852;2023-06-22T05:27:20;9.68;;;5.40;;
22843;SDS011;11588;51.178;4.852;2023-06-22T05:29:46;7.40;;;5.22;;
22843;SDS011;11588;51.178;4.852;2023-06-22T05:32:13;7.75;;;5.70;;
22843;SDS011;11588;51.178;4.852;2023-06-22T05:34:40;9.70;;;5.93;;
22843;SDS011;11588;51.178;4.852;2023-06-22T05:37:06;6.22;;;5.07;;
22843;SDS011;11588;51.178;4.852;2023-06-22T05:39:35;7.20;;;4.82;;
22843;SDS011;11588;51.178;4.852;2023-06-22T05:42:05;9.23;;;5.82;;
22843;SDS011;11588;51.178;4.852;2023-06-22T05:44:32;6.78;;;5.55;;
22843;SDS011;11588;51.178;4.852;2023-06-22T05:47:00;7.25;;;4.85;;
22843;SDS011;11588;51.178;4.852;2023-06-22T05:49:26;8.77;;;5.15;;
22843;SDS011;11588;51.178;4.852;2023-06-22T05:51:59;7.85;;;5.55;;
22843;SDS011;11588;51.178;4.852;2023-06-22T05:54:28;11.73;;;5.40;;
22843;SDS011;11588;51.178;4.852;2023-06-22T05:56:55;8.65;;;5.78;;
22843;SDS011;11588;51.178;4.852;2023-06-22T05:59:21;8.23;;;5.65;;
22843;SDS011;11588;51.178;4.852;2023-06-22T06:01:48;6.60;;;4.63;;
22843;SDS011;11588;51.178;4.852;2023-06-22T06:04:17;8.00;;;5.57;;
22843;SDS011;11588;51.178;4.852;2023-06-22T06:06:44;8.05;;;5.75;;
22843;SDS011;11588;51.178;4.852;2023-06-22T06:09:11;8.23;;;5.47;;
22843;SDS011;11588;51.178;4.852;2023-06-22T06:11:38;7.88;;;5.75;;
22843;SDS011;11588;51.178;4.852;2023-06-22T06:14:04;7.25;;;5.55;;
22843;SDS011;11588;51.178;4.852;2023-06-22T06:16:31;9.45;;;5.28;;
22843;SDS011;11588;51.178;4.852;2023-06-22T06:18:58;8.48;;;5.03;;
22843;SDS011;11588;51.178;4.852;2023-06-22T06:21:25;7.30;;;5.22;;
22843;SDS011;11588;51.178;4.852;2023-06-22T06:23:52;7.35;;;5.32;;
22843;SDS011;11588;51.178;4.852;2023-06-22T06:26:19;7.18;;;5.38;;
22843;SDS011;11588;51.178;4.852;2023-06-22T06:28:56;7.82;;;5.15;;
22843;SDS011;11588;51.178;4.852;2023-06-22T06:31:24;9.10;;;5.03;;
22843;SDS011;11588;51.178;4.852;2023-06-22T06:33:51;7.00;;;4.82;;
22843;SDS011;11588;51.178;4.852;2023-06-22T06:36:17;7.82;;;5.15;;
22843;SDS011;11588;51.178;4.852;2023-06-22T06:38:44;6.25;;;4.85;;
22843;SDS011;11588;51.178;4.852;2023-06-22T06:41:15;7.07;;;4.95;;
22843;SDS011;11588;51.178;4.852;2023-06-22T06:43:44;8.07;;;5.75;;
22843;SDS011;11588;51.178;4.852;2023-06-22T06:46:11;8.15;;;5.53;;
22843;SDS011;11588;51.178;4.852;2023-06-22T06:48:37;7.18;;;5.82;;
22843;SDS011;11588;51.178;4.852;2023-06-22T06:51:04;9.27;;;5.75;;
22843;SDS011;11588;51.178;4.852;2023-06-22T06:53:31;10.02;;;5.88;;
22843;SDS011;11588;51.178;4.852;2023-06-22T06:55:58;11.52;;;5.97;;
22843;SDS011;11588;51.178;4.852;2023-06-22T06:58:25;8.25;;;5.47;;
22843;SDS011;11588;51.178;4.852;2023-06-22T07:00:51;12.05;;;5.57;;
22843;SDS011;11588;51.178;4.852;2023-06-22T07:03:18;7.18;;;5.18;;
22843;SDS011;11588;51.178;4.852;2023-06-22T07:05:45;7.85;;;5.28;;
22843;SDS011;11588;51.178;4.852;2023-06-22T07:08:12;8.05;;;5.95;;
22843;SDS011;11588;51.178;4.852;2023-06-22T07:10:38;9.32;;;6.28;;
22843;SDS011;11588;51.178;4.852;2023-06-22T07:13:05;6.35;;;5.72;;
22843;SDS011;11588;51.178;4.852;2023-06-22T07:15:32;7.97;;;5.65;;
22843;SDS011;11588;51.178;4.852;2023-06-22T07:17:58;10.55;;;5.60;;
22843;SDS011;11588;51.178;4.852;2023-06-22T07:20:25;7.63;;;5.40;;
22843;SDS011;11588;51.178;4.852;2023-06-22T07:22:52;7.05;;;4.72;;
22843;SDS011;11588;51.178;4.852;2023-06-22T07:25:19;9.80;;;6.60;;
22843;SDS011;11588;51.178;4.852;2023-06-22T07:27:56;8.60;;;6.18;;
22843;SDS011;11588;51.178;4.852;2023-06-22T07:30:25;8.85;;;5.40;;
22843;SDS011;11588;51.178;4.852;2023-06-22T07:32:52;7.85;;;5.45;;
22843;SDS011;11588;51.178;4.852;2023-06-22T07:35:19;9.45;;;6.38;;
22843;SDS011;11588;51.178;4.852;2023-06-22T07:37:45;9.82;;;5.72;;
22843;SDS011;11588;51.178;4.852;2023-06-22T07:40:12;9.80;;;5.90;;
22843;SDS011;11588;51.178;4.852;2023-06-22T07:42:39;8.30;;;5.75;;
22843;SDS011;11588;51.178;4.852;2023-06-22T07:45:06;9.07;;;6.40;;
22843;SDS011;11588;51.178;4.852;2023-06-22T07:47:34;8.27;;;5.70;;
22843;SDS011;11588;51.178;4.852;2023-06-22T07:50:01;17.02;;;5.93;;
22843;SDS011;11588;51.178;4.852;2023-06-22T07:52:28;11.48;;;6.38;;
22843;SDS011;11588;51.178;4.852;2023-06-22T07:54:55;8.07;;;5.22;;
22843;SDS011;11588;51.178;4.852;2023-06-22T07:57:22;9.55;;;6.10;;
22843;SDS011;11588;51.178;4.852;2023-06-22T07:59:49;8.10;;;6.05;;
22843;SDS011;11588;51.178;4.852;2023-06-22T08:02:15;8.35;;;6.18;;
22843;SDS011;11588;51.178;4.852;2023-06-22T08:04:42;8.90;;;5.97;;
22843;SDS011;11588;51.178;4.852;2023-06-22T08:07:09;8.15;;;5.38;;
22843;SDS011;11588;51.178;4.852;2023-06-22T08:09:36;8.05;;;5.45;;
22843;SDS011;11588;51.178;4.852;2023-06-22T08:12:03;9.23;;;6.35;;
22843;SDS011;11588;51.178;4.852;2023-06-22T08:14:30;9.13;;;6.60;;
22843;SDS011;11588;51.178;4.852;2023-06-22T08:16:57;10.77;;;6.38;;
22843;SDS011;11588;51.178;4.852;2023-06-22T08:19:24;11.40;;;6.82;;
22843;SDS011;11588;51.178;4.852;2023-06-22T08:21:50;9.15;;;6.10;;
22843;SDS011;11588;51.178;4.852;2023-06-22T08:24:17;10.15;;;6.35;;
22843;SDS011;11588;51.178;4.852;2023-06-22T08:26:44;10.45;;;6.78;;
22843;SDS011;11588;51.178;4.852;2023-06-22T08:29:11;10.88;;;6.50;;
22843;SDS011;11588;51.178;4.852;2023-06-22T08:31:38;10.20;;;6.07;;
22843;SDS011;11588;51.178;4.852;2023-06-22T08:34:05;10.45;;;6.07;;
22843;SDS011;11588;51.178;4.852;2023-06-22T08:36:31;8.93;;;5.68;;
22843;SDS011;11588;51.178;4.852;2023-06-22T08:39:05;8.77;;;6.28;;
22843;SDS011;11588;51.178;4.852;2023-06-22T08:41:32;7.95;;;6.07;;
22843;SDS011;11588;51.178;4.852;2023-06-22T08:43:58;8.57;;;6.28;;
22843;SDS011;11588;51.178;4.852;2023-06-22T08:46:25;9.68;;;6.70;;
22843;SDS011;11588;51.178;4.852;2023-06-22T08:48:59;10.70;;;7.05;;
22843;SDS011;11588;51.178;4.852;2023-06-22T08:51:26;7.88;;;5.93;;
22843;SDS011;11588;51.178;4.852;2023-06-22T08:53:52;7.95;;;5.93;;
22843;SDS011;11588;51.178;4.852;2023-06-22T08:56:19;9.23;;;6.15;;
22843;SDS011;11588;51.178;4.852;2023-06-22T08:58:46;8.43;;;5.63;;
22843;SDS011;11588;51.178;4.852;2023-06-22T09:01:13;8.00;;;5.82;;
22843;SDS011;11588;51.178;4.852;2023-06-22T09:03:44;7.68;;;5.60;;
22843;SDS011;11588;51.178;4.852;2023-06-22T09:06:11;7.85;;;5.75;;
22843;SDS011;11588;51.178;4.852;2023-06-22T09:08:38;10.45;;;6.78;;
22843;SDS011;11588;51.178;4.852;2023-06-22T09:11:05;8.75;;;6.22;;
22843;SDS011;11588;51.178;4.852;2023-06-22T09:13:32;8.32;;;6.10;;
22843;SDS011;11588;51.178;4.852;2023-06-22T09:15:59;10.95;;;6.40;;
22843;SDS011;11588;51.178;4.852;2023-06-22T09:18:26;8.05;;;6.25;;
22843;SDS011;11588;51.178;4.852;2023-06-22T09:20:53;10.02;;;6.72;;
22843;SDS011;11588;51.178;4.852;2023-06-22T09:23:19;9.80;;;5.95;;
22843;SDS011;11588;51.178;4.852;2023-06-22T09:25:46;10.23;;;6.80;;
22843;SDS011;11588;51.178;4.852;2023-06-22T09:28:14;13.18;;;7.10;;
22843;SDS011;11588;51.178;4.852;2023-06-22T09:30:42;7.63;;;5.72;;
22843;SDS011;11588;51.178;4.852;2023-06-22T09:33:09;7.47;;;5.82;;
22843;SDS011;11588;51.178;4.852;2023-06-22T09:35:38;9.23;;;6.13;;
22843;SDS011;11588;51.178;4.852;2023-06-22T09:38:05;7.82;;;6.10;;
22843;SDS011;11588;51.178;4.852;2023-06-22T09:40:32;8.93;;;6.03;;
22843;SDS011;11588;51.178;4.852;2023-06-22T09:43:01;8.20;;;5.70;;
22843;SDS011;11588;51.178;4.852;2023-06-22T09:45:28;8.73;;;5.65;;
22843;SDS011;11588;51.178;4.852;2023-06-22T09:47:55;6.63;;;5.60;;
22843;SDS011;11588;51.178;4.852;2023-06-22T09:50:22;8.68;;;5.70;;
22843;SDS011;11588;51.178;4.852;2023-06-22T09:52:48;10.52;;;5.90;;
22843;SDS011;11588;51.178;4.852;2023-06-22T09:55:22;9.15;;;5.57;;
22843;SDS011;11588;51.178;4.852;2023-06-22T09:57:48;7.43;;;5.10;;
22843;SDS011;11588;51.178;4.852;2023-06-22T10:00:15;8.45;;;5.30;;
22843;SDS011;11588;51.178;4.852;2023-06-22T10:02:43;7.20;;;5.05;;
22843;SDS011;11588;51.178;4.852;2023-06-22T10:05:10;8.32;;;5.70;;
22843;SDS011;11588;51.178;4.852;2023-06-22T10:07:38;6.53;;;5.03;;
22843;SDS011;11588;51.178;4.852;2023-06-22T10:10:11;9.13;;;5.35;;
22843;SDS011;11588;51.178;4.852;2023-06-22T10:12:44;6.43;;;4.75;;
22843;SDS011;11588;51.178;4.852;2023-06-22T10:15:16;7.45;;;4.80;;
22843;SDS011;11588;51.178;4.852;2023-06-22T10:17:44;7.88;;;5.57;;
22843;SDS011;11588;51.178;4.852;2023-06-22T10:20:12;7.53;;;4.97;;
22843;SDS011;11588;51.178;4.852;2023-06-22T10:22:41;6.03;;;4.22;;
22843;SDS011;11588;51.178;4.852;2023-06-22T10:25:10;7.30;;;4.93;;
22843;SDS011;11588;51.178;4.852;2023-06-22T10:27:39;6.45;;;4.38;;
22843;SDS011;11588;51.178;4.852;2023-06-22T10:30:08;8.07;;;4.53;;
22843;SDS011;11588;51.178;4.852;2023-06-22T10:32:39;8.27;;;4.32;;
22843;SDS011;11588;51.178;4.852;2023-06-22T10:35:07;6.05;;;4.30;;
22843;SDS011;11588;51.178;4.852;2023-06-22T10:37:35;6.68;;;4.32;;
22843;SDS011;11588;51.178;4.852;2023-06-22T10:40:03;7.55;;;4.50;;
22843;SDS011;11588;51.178;4.852;2023-06-22T10:42:31;7.97;;;5.05;;
22843;SDS011;11588;51.178;4.852;2023-06-22T10:44:59;9.02;;;5.03;;
22843;SDS011;11588;51.178;4.852;2023-06-22T10:47:27;7.97;;;5.20;;
22843;SDS011;11588;51.178;4.852;2023-06-22T10:49:54;10.65;;;5.78;;
22843;SDS011;11588;51.178;4.852;2023-06-22T10:52:22;8.20;;;5.07;;
22843;SDS011;11588;51.178;4.852;2023-06-22T10:54:49;8.23;;;5.25;;
22843;SDS011;11588;51.178;4.852;2023-06-22T10:57:17;8.18;;;5.13;;
22843;SDS011;11588;51.178;4.852;2023-06-22T10:59:44;8.07;;;5.15;;
22843;SDS011;11588;51.178;4.852;2023-06-22T11:02:11;9.48;;;5.82;;
22843;SDS011;11588;51.178;4.852;2023-06-22T11:04:38;9.40;;;5.32;;
22843;SDS011;11588;51.178;4.852;2023-06-22T11:07:05;8.65;;;5.55;;
22843;SDS011;11588;51.178;4.852;2023-06-22T11:09:32;9.93;;;5.38;;
22843;SDS011;11588;51.178;4.852;2023-06-22T11:11:59;10.73;;;5.68;;
22843;SDS011;11588;51.178;4.852;2023-06-22T11:14:27;10.15;;;5.53;;
22843;SDS011;11588;51.178;4.852;2023-06-22T11:16:54;9.90;;;6.45;;
22843;SDS011;11588;51.178;4.852;2023-06-22T11:19:21;12.70;;;6.38;;
22843;SDS011;11588;51.178;4.852;2023-06-22T11:21:48;10.85;;;6.35;;
22843;SDS011;11588;51.178;4.852;2023-06-22T11:24:16;13.00;;;5.72;;
22843;SDS011;11588;51.178;4.852;2023-06-22T11:26:43;11.02;;;7.00;;
22843;SDS011;11588;51.178;4.852;2023-06-22T11:29:10;9.48;;;6.10;;
22843;SDS011;11588;51.178;4.852;2023-06-22T11:31:37;9.45;;;6.07;;
22843;SDS011;11588;51.178;4.852;2023-06-22T11:34:04;12.82;;;6.88;;
22843;SDS011;11588;51.178;4.852;2023-06-22T11:36:31;10.05;;;6.32;;
22843;SDS011;11588;51.178;4.852;2023-06-22T11:38:59;11.57;;;7.25;;
22843;SDS011;11588;51.178;4.852;2023-06-22T11:41:26;11.93;;;7.50;;
22843;SDS011;11588;51.178;4.852;2023-06-22T11:43:53;11.63;;;6.95;;
22843;SDS011;11588;51.178;4.852;2023-06-22T11:46:19;10.57;;;7.03;;
22843;SDS011;11588;51.178;4.852;2023-06-22T11:48:47;12.20;;;6.65;;
22843;SDS011;11588;51.178;4.852;2023-06-22T11:51:14;14.18;;;7.82;;
22843;SDS011;11588;51.178;4.852;2023-06-22T11:53:40;11.15;;;6.70;;
22843;SDS011;11588;51.178;4.852;2023-06-22T11:56:07;11.50;;;7.40;;
22843;SDS011;11588;51.178;4.852;2023-06-22T11:58:34;10.82;;;6.60;;
22843;SDS011;11588;51.178;4.852;2023-06-22T12:01:01;12.90;;;6.88;;
22843;SDS011;11588;51.178;4.852;2023-06-22T12:03:28;12.68;;;7.78;;
22843;SDS011;11588;51.178;4.852;2023-06-22T12:05:55;11.55;;;7.30;;
22843;SDS011;11588;51.178;4.852;2023-06-22T12:08:22;12.25;;;8.60;;
22843;SDS011;11588;51.178;4.852;2023-06-22T12:10:49;13.90;;;8.52;;
22843;SDS011;11588;51.178;4.852;2023-06-22T12:13:16;14.48;;;8.05;;
22843;SDS011;11588;51.178;4.852;2023-06-22T12:15:43;15.80;;;7.97;;
22843;SDS011;11588;51.178;4.852;2023-06-22T12:18:11;13.88;;;8.55;;
22843;SDS011;11588;51.178;4.852;2023-06-22T12:20:38;11.80;;;8.02;;
22843;SDS011;11588;51.178;4.852;2023-06-22T12:23:05;8.63;;;6.05;;
22843;SDS011;11588;51.178;4.852;2023-06-22T12:25:34;8.57;;;6.38;;
22843;SDS011;11588;51.178;4.852;2023-06-22T12:28:01;9.32;;;6.38;;
22843;SDS011;11588;51.178;4.852;2023-06-22T12:30:28;11.73;;;6.90;;
22843;SDS011;11588;51.178;4.852;2023-06-22T12:32:55;12.98;;;7.43;;
22843;SDS011;11588;51.178;4.852;2023-06-22T12:35:22;11.80;;;7.05;;
22843;SDS011;11588;51.178;4.852;2023-06-22T12:37:49;12.18;;;7.53;;
22843;SDS011;11588;51.178;4.852;2023-06-22T12:40:16;15.43;;;8.35;;
22843;SDS011;11588;51.178;4.852;2023-06-22T12:42:44;11.27;;;7.30;;
22843;SDS011;11588;51.178;4.852;2023-06-22T12:45:11;13.90;;;8.63;;
22843;SDS011;11588;51.178;4.852;2023-06-22T12:47:38;18.92;;;9.05;;
22843;SDS011;11588;51.178;4.852;2023-06-22T12:50:05;14.80;;;8.98;;
22843;SDS011;11588;51.178;4.852;2023-06-22T12:52:32;15.70;;;9.45;;
22843;SDS011;11588;51.178;4.852;2023-06-22T12:54:59;15.20;;;9.13;;
22843;SDS011;11588;51.178;4.852;2023-06-22T12:57:26;17.95;;;9.68;;
22843;SDS011;11588;51.178;4.852;2023-06-22T12:59:52;15.18;;;8.57;;
22843;SDS011;11588;51.178;4.852;2023-06-22T13:02:20;14.23;;;8.75;;
22843;SDS011;11588;51.178;4.852;2023-06-22T13:04:47;15.25;;;9.48;;
22843;SDS011;11588;51.178;4.852;2023-06-22T13:07:14;17.77;;;8.98;;
22843;SDS011;11588;51.178;4.852;2023-06-22T13:09:41;15.07;;;9.32;;
22843;SDS011;11588;51.178;4.852;2023-06-22T13:12:10;16.77;;;9.60;;
22843;SDS011;11588;51.178;4.852;2023-06-22T13:14:37;17.13;;;8.90;;
22843;SDS011;11588;51.178;4.852;2023-06-22T13:17:04;12.57;;;8.57;;
22843;SDS011;11588;51.178;4.852;2023-06-22T13:19:31;17.33;;;9.45;;
22843;SDS011;11588;51.178;4.852;2023-06-22T13:21:59;14.38;;;9.05;;
22843;SDS011;11588;51.178;4.852;2023-06-22T13:24:27;17.70;;;8.70;;
22843;SDS011;11588;51.178;4.852;2023-06-22T13:26:54;19.05;;;9.90;;
22843;SDS011;11588;51.178;4.852;2023-06-22T13:29:21;16.40;;;9.90;;
22843;SDS011;11588;51.178;4.852;2023-06-22T13:31:48;21.10;;;9.88;;
22843;SDS011;11588;51.178;4.852;2023-06-22T13:34:15;20.23;;;10.68;;
22843;SDS011;11588;51.178;4.852;2023-06-22T13:36:43;18.65;;;10.38;;
22843;SDS011;11588;51.178;4.852;2023-06-22T13:39:11;16.67;;;9.73;;
22843;SDS011;11588;51.178;4.852;2023-06-22T13:41:39;17.65;;;9.45;;
22843;SDS011;11588;51.178;4.852;2023-06-22T13:44:06;13.32;;;8.98;;
22843;SDS011;11588;51.178;4.852;2023-06-22T13:46:34;16.35;;;9.18;;
22843;SDS011;11588;51.178;4.852;2023-06-22T13:49:01;17.85;;;10.43;;
22843;SDS011;11588;51.178;4.852;2023-06-22T13:51:28;14.48;;;9.60;;
22843;SDS011;11588;51.178;4.852;2023-06-22T13:53:56;13.98;;;9.50;;
22843;SDS011;11588;51.178;4.852;2023-06-22T13:56:24;16.00;;;10.40;;
22843;SDS011;11588;51.178;4.852;2023-06-22T13:58:51;15.93;;;9.98;;
22843;SDS011;11588;51.178;4.852;2023-06-22T14:01:19;15.32;;;10.23;;
22843;SDS011;11588;51.178;4.852;2023-06-22T14:03:47;17.25;;;9.32;;
22843;SDS011;11588;51.178;4.852;2023-06-22T14:06:15;23.65;;;12.32;;
22843;SDS011;11588;51.178;4.852;2023-06-22T14:08:45;19.00;;;9.70;;
22843;SDS011;11588;51.178;4.852;2023-06-22T14:11:12;21.88;;;10.57;;
22843;SDS011;11588;51.178;4.852;2023-06-22T14:13:40;25.75;;;11.82;;
22843;SDS011;11588;51.178;4.852;2023-06-22T14:16:09;17.75;;;11.40;;
22843;SDS011;11588;51.178;4.852;2023-06-22T14:18:37;18.35;;;10.63;;
22843;SDS011;11588;51.178;4.852;2023-06-22T14:21:04;19.38;;;11.23;;
22843;SDS011;11588;51.178;4.852;2023-06-22T14:23:32;17.77;;;10.38;;
22843;SDS011;11588;51.178;4.852;2023-06-22T14:25:59;19.48;;;11.10;;
22843;SDS011;11588;51.178;4.852;2023-06-22T14:28:27;17.42;;;10.15;;
22843;SDS011;11588;51.178;4.852;2023-06-22T14:30:54;20.73;;;11.40;;
22843;SDS011;11588;51.178;4.852;2023-06-22T14:33:22;22.70;;;11.10;;
22843;SDS011;11588;51.178;4.852;2023-06-22T14:35:50;19.33;;;10.43;;
22843;SDS011;11588;51.178;4.852;2023-06-22T14:38:17;15.95;;;9.93;;
22843;SDS011;11588;51.178;4.852;2023-06-22T14:40:46;16.35;;;10.18;;
22843;SDS011;11588;51.178;4.852;2023-06-22T14:43:14;14.05;;;9.13;;
22843;SDS011;11588;51.178;4.852;2023-06-22T14:45:44;17.98;;;10.68;;
22843;SDS011;11588;51.178;4.852;2023-06-22T14:48:13;16.73;;;10.33;;
22843;SDS011;11588;51.178;4.852;2023-06-22T14:50:40;15.82;;;10.57;;
22843;SDS011;11588;51.178;4.852;2023-06-22T14:53:08;18.90;;;10.52;;